createdAt,value
2022-09-12T00:07:43.581Z,98417.80
2022-09-12T00:17:50.725Z,98416.66
2022-09-12T00:27:58.977Z,98417.48
2022-09-12T00:38:06.219Z,98416.34
2022-09-12T00:48:16.421Z,98413.55
2022-09-12T00:58:27.467Z,98416.40
2022-09-12T01:08:37.549Z,98420.91
2022-09-12T01:18:54.805Z,98418.55
2022-09-12T01:29:09.946Z,98418.59
2022-09-12T01:39:22.544Z,98417.40
2022-09-12T01:49:34.039Z,98421.52
2022-09-12T01:59:42.434Z,98424.70
2022-09-12T02:09:54.892Z,98425.04
2022-09-12T02:20:02.531Z,98427.49
2022-09-12T02:30:14.508Z,98430.45
2022-09-12T02:40:19.254Z,98433.49
2022-09-12T02:50:26.549Z,98432.54
2022-09-12T03:00:39.130Z,98433.71
2022-09-12T03:10:58.025Z,98434.77
2022-09-12T03:21:07.500Z,98443.38
2022-09-12T03:31:16.899Z,98447.11
2022-09-12T03:41:23.019Z,98451.38
2022-09-12T03:51:30.370Z,98452.04
2022-09-12T04:01:37.112Z,98457.70
2022-09-12T04:11:44.595Z,98461.73
2022-09-12T04:21:51.908Z,98465.95
2022-09-12T04:31:59.428Z,98473.41
2022-09-12T04:42:04.801Z,98476.89
2022-09-12T04:52:12.088Z,98481.04
2022-09-12T05:02:19.339Z,98486.48
2022-09-12T05:12:25.608Z,98490.58
2022-09-12T05:22:33.244Z,98502.30
2022-09-12T05:32:39.655Z,98514.73
2022-09-12T05:42:47.019Z,98514.39
2022-09-12T05:52:55.223Z,98522.81
2022-09-12T06:03:02.554Z,98526.48
2022-09-12T06:13:09.785Z,98515.14
2022-09-12T06:23:16.959Z,98514.58
2022-09-12T06:33:24.167Z,98522.03
2022-09-12T06:43:31.383Z,98524.65
2022-09-12T06:53:39.175Z,98524.89
2022-09-12T07:03:50.856Z,98525.83
2022-09-12T07:13:59.226Z,98528.71
2022-09-12T07:24:05.705Z,98528.60
2022-09-12T07:34:14.222Z,98537.56
2022-09-12T07:44:20.575Z,98543.25
2022-09-12T07:54:27.986Z,98546.05
2022-09-12T08:04:36.692Z,98548.72
2022-09-12T08:14:42.385Z,98557.25
2022-09-12T08:24:50.026Z,98566.67
2022-09-12T08:34:57.239Z,98564.06
2022-09-12T08:45:15.156Z,98561.53
2022-09-12T08:55:31.324Z,98565.20
2022-09-12T09:05:47.448Z,98565.52
2022-09-12T09:16:01.884Z,98556.86
2022-09-12T09:26:14.716Z,98562.52
2022-09-12T09:36:19.758Z,98552.80
2022-09-12T09:46:26.414Z,98558.19
2022-09-12T09:56:34.588Z,98557.19
2022-09-12T10:06:42.858Z,98561.46
2022-09-12T10:16:54.322Z,98566.33
2022-09-12T10:27:08.460Z,98567.11
2022-09-12T10:37:19.542Z,98560.61
2022-09-12T10:47:32.839Z,98561.35
2022-09-12T10:57:51.344Z,98563.90
2022-09-12T11:08:02.778Z,98569.89
2022-09-12T11:18:16.448Z,98562.39
2022-09-12T11:28:25.510Z,98565.74
2022-09-12T11:38:52.473Z,98564.41
2022-09-12T11:49:01.187Z,98562.16
2022-09-12T11:59:18.839Z,98564.67
2022-09-12T12:09:26.280Z,98572.80
2022-09-12T12:19:34.011Z,98570.75
2022-09-12T12:29:44.189Z,98575.52
2022-09-12T12:40:01.651Z,98573.09
2022-09-12T12:50:23.763Z,98569.23
2022-09-12T13:00:39.941Z,98565.49
2022-09-12T13:10:50.328Z,98564.30
2022-09-12T13:21:01.464Z,98557.85
2022-09-12T13:31:09.147Z,98547.69
2022-09-12T13:41:31.700Z,98533.90
2022-09-12T13:51:39.449Z,98535.35
2022-09-12T14:01:48.490Z,98535.14
2022-09-12T14:11:56.219Z,98536.20
2022-09-12T14:22:02.593Z,98538.21
2022-09-12T14:32:23.048Z,98535.30
2022-09-12T14:42:34.361Z,98530.93
2022-09-12T14:52:41.899Z,98529.89
2022-09-12T15:02:47.997Z,98523.20
2022-09-12T15:13:06.252Z,98520.80
2022-09-12T15:23:17.405Z,98520.41
2022-09-12T15:33:25.850Z,98529.50
2022-09-12T15:43:33.060Z,98534.08
2022-09-12T15:53:40.842Z,98540.00
2022-09-12T16:03:49.011Z,98545.23
2022-09-12T16:13:56.444Z,98541.33
2022-09-12T16:24:04.060Z,98541.05
2022-09-12T16:34:11.580Z,98542.66
2022-09-12T16:44:18.840Z,98545.40
2022-09-12T16:54:24.939Z,98553.41
2022-09-12T17:04:32.372Z,98546.84
2022-09-12T17:14:39.666Z,98549.81
2022-09-12T17:24:46.955Z,98550.55
2022-09-12T17:34:54.582Z,98560.98
2022-09-12T17:45:01.922Z,98567.38
2022-09-12T18:05:17.557Z,98578.43
2022-09-12T18:15:24.696Z,98578.27
2022-09-12T18:25:32.080Z,98574.92
2022-09-12T18:35:39.224Z,98584.65
2022-09-12T18:45:46.468Z,98592.88
2022-09-12T18:55:54.287Z,98594.94
2022-09-12T19:06:01.602Z,98592.46
2022-09-12T19:16:11.847Z,98591.48
2022-09-12T19:26:21.417Z,98582.89
2022-09-12T19:36:46.362Z,98578.35
2022-09-12T19:46:55.365Z,98576.71
2022-09-12T19:57:02.544Z,98581.48
2022-09-12T20:07:10.310Z,98577.10
2022-09-12T20:17:17.510Z,98570.47
2022-09-12T20:27:25.013Z,98560.83
2022-09-12T20:37:32.262Z,98561.45
2022-09-12T20:47:39.571Z,98559.77
2022-09-12T20:57:50.534Z,98548.42
2022-09-12T21:07:57.626Z,98542.66
2022-09-12T21:18:04.820Z,98544.45
2022-09-12T21:28:12.340Z,98550.67
2022-09-12T21:38:20.755Z,98544.86
2022-09-12T21:48:28.479Z,98534.58
2022-09-12T21:58:35.789Z,98523.52
2022-09-12T22:08:44.063Z,98516.80
2022-09-12T22:18:50.902Z,98526.13
2022-09-12T22:28:58.635Z,98521.98
2022-09-12T22:39:06.140Z,98516.98
2022-09-12T22:49:13.995Z,98520.55
2022-09-12T22:59:20.669Z,98516.70
2022-09-12T23:09:32.054Z,98508.58
2022-09-12T23:19:42.193Z,98502.98
2022-09-12T23:29:52.636Z,98493.67
2022-09-12T23:39:59.879Z,98490.23
2022-09-12T23:50:08.345Z,98486.50
